Terminal Aerodrome Forecast
Issued by NWS Sterling, VA

Home | Current Version | Previous Version | Text Only | Print | Product List | Glossary On
Versions: 1 2 3 4 5 6 7 8 9 10 11 12 13 14 15 16 17 18 19 20 21 22 23 24 25 26 27 28 29 30 31 32 33 34 35
000
FTUS41 KLWX 181511 AAL
TAFBWI
TAF AMD
KBWI 181511Z 1815/1918 16007KT 4SM -SNPL OVC040
     FM181900 17010G17KT 4SM -SNPL OVC035
     FM182100 18011G18KT 3SM -RAPL OVC025
     FM190000 21011G18KT P6SM OVC035
     FM190800 25010G17KT P6SM BKN060
     FM191000 27010KT P6SM BKN120
     FM191200 29010G17KT P6SM SCT200=

USA.gov is the U.S. government's official web portal to all federal, state and local government web resources and services.